首页
METAR-TAF:

METAR-TAF

机场 :

埃尔迈拉 / 康宁, 紐約州, 美国

纬度: 42-09-23N, 经度: 076-54-10W, 海拔: 291米

当前天气观测

该预报发布于58分钟前的08:53 UTC
静风
温度 -9°C
湿度 79%
气压 1035 hPa
能見度: 16.1公里
天空无云

METAR: KELM 120853Z AUTO 00000KT 10SM CLR M09/M12 A3057 RMK AO2 SLP368 T10941122 51019

时间: 04:51 (09:51 UTC)

预报

该预报发布于3小时和56分钟前的05:55 UTC
预报有效从12日的 06点(UTC)到 13日的 06点(UTC)
风速4节,风向西
能見度: 10公里
少量云层高于10000英尺
从 12日的 1700点(UTC)
风速6节,风向
能見度: 10公里
散云层高于9000英尺
从 13日的 0100点(UTC)
风速12节,风向南转西南
能見度: 10公里
多云层高于12000英尺

TAF: KELM 120555Z 1206/1306 26004KT P6SM FEW100 FM121700 18006KT P6SM SCT090 FM130100 20012KT P6SM BKN120

超过4000个机场的气象观测和天气预报(METAR&TAF报告)。

可查询的气象台以黄色和红色小点在地图上表示。

将鼠标移到小点上方,可查看气象台名称。

然后点击查看天气观测和预报。

如需切换地图:点击带黑十字的绿色按钮放大地图;点击带横线的绿色按钮缩小地图;或者点击绿色箭头查看邻近地区的地图。


METAR-TAF: